Airfield :







YOU CAN JOIN US ON...

 
LOGIN :

Register | Disclaimer

   EN    FR    IT 

 









Legend :    VFR   Marginal VFR   IFR   Intensive IFR   Very Intensive IFR
Visi :
Ceiling :
>= 8 km
>= 3000ft
5 to 8 km
1000 to 3000 ft
1500m to 5 km
500 to 1000 ft
800 to 1500m
200 to 500 ft
< 800m
< 200 ft
Symbols :   Thunderstorms  Fog  Heavy snow  Heavy precipitations  Wind > 20 kt






- Airport Elevation : 1663 ft
- IATA code : SLK


KSLK - Adirondack Regional

CURRENT METAR :
  • 090626Z AUTO 22007KT 10SM OVC013 22/22 A2979 RMK AO2 T02220217

EXPIRED METARs :
  • 090551Z AUTO 23008KT 10SM OVC016 22/22 A2979 RMK AO2 SLP073 P0001 60003 T02220217 10228 20217 58012
  • 090527Z AUTO 23009KT 10SM SCT015 BKN021 OVC032 22/22 A2980 RMK AO2 T02220217
  • 090510Z AUTO 22007KT 10SM FEW009 BKN031 OVC070 22/22 A2980 RMK AO2 T02220217
  • 090451Z AUTO 22007KT 10SM FEW011 BKN031 OVC075 22/22 A2981 RMK AO2 RAB18E39 SLP080 P0000 T02220222 403060200
  • 090443Z AUTO 21007KT 10SM FEW009 BKN031 OVC048 22/22 A2981 RMK AO2 RAB18E39 P0000 T02220222
  • 090436Z AUTO 23006KT 10SM -RA SCT009 BKN022 OVC031 22/22 A2981 RMK AO2 RAB18 P0000 T02220222
  • 090351Z AUTO 20006KT 9SM BKN008 OVC014 22/22 A2982 RMK AO2 CIG 005V010 SLP084 T02220222

TAF KSLK
Valid from the 09 at 06:00 until the 10 at 06:00 UTC


090539Z 0906/1006 24007KT P6SM OVC020 WS020/25045KT
FM090700 25008G14KT 4SM -SHRA BR OVC015 WS020/25040KT
FM090800 28008KT 4SM -SHRA BR OVC012 WS020/26045KT
FM091100 32004KT P6SM VCSH OVC006
FM091600 VRB04KT P6SM OVC020
FM100300 00000KT P6SM BKN007
KZBW FIR / North America



MET'MAP, your aeronautical weather chart ! - Copyright ORBIFLY December 2007 - Disclaimer

ORBIFLY MET'MAP TEAM :

Programming & Development : Alexandra Zaïnal
Original concept : Baudouin d'Aumeries
Technical & hardware support : Manuel Goepfert
Assistance : Marc-Olivier Méhu




SOURCES & CREDITS :

   NOAA